createdAt,value
2023-04-09T00:02:21.936Z,65.19
2023-04-09T00:05:28.383Z,64.34
2023-04-09T00:08:36.903Z,64.83
2023-04-09T00:11:43.361Z,64.40
2023-04-09T00:14:48.836Z,64.10
2023-04-09T00:17:56.565Z,64.10
2023-04-09T00:21:02.146Z,63.74
2023-04-09T00:24:12.006Z,64.14
2023-04-09T00:27:17.448Z,63.50
2023-04-09T00:30:24.248Z,64.09
2023-04-09T00:33:29.747Z,64.38
2023-04-09T00:36:36.094Z,64.01
2023-04-09T00:39:44.377Z,63.71
2023-04-09T00:42:51.640Z,63.89
2023-04-09T00:45:57.588Z,64.51
2023-04-09T00:49:04.007Z,64.63
2023-04-09T00:52:10.658Z,64.03
2023-04-09T00:55:21.788Z,63.92
2023-04-09T00:58:27.690Z,64.21
2023-04-09T01:01:34.795Z,63.98
2023-04-09T01:04:44.768Z,63.71
2023-04-09T01:08:06.956Z,63.03
2023-04-09T01:11:35.616Z,62.80
2023-04-09T01:14:58.023Z,62.29
2023-04-09T01:18:13.348Z,62.71
2023-04-09T01:21:26.879Z,63.74
2023-04-09T01:24:48.148Z,64.17
2023-04-09T01:28:33.117Z,64.94
2023-04-09T01:31:43.543Z,64.27
2023-04-09T01:34:52.604Z,64.33
2023-04-09T01:38:00.436Z,65.16
2023-04-09T01:41:09.269Z,64.99
2023-04-09T01:44:20.004Z,65.13
2023-04-09T01:47:27.527Z,64.75
2023-04-09T01:50:33.360Z,64.50
2023-04-09T01:53:40.106Z,65.30
2023-04-09T01:56:47.569Z,64.81
2023-04-09T01:59:58.680Z,65.20
2023-04-09T02:03:14.256Z,64.52
2023-04-09T02:06:34.224Z,65.22
2023-04-09T02:09:43.567Z,64.94
2023-04-09T02:12:55.621Z,65.23
2023-04-09T02:16:06.877Z,65.32
2023-04-09T02:19:13.937Z,65.60
2023-04-09T02:22:20.814Z,65.81
2023-04-09T02:25:29.929Z,65.88
2023-04-09T02:28:35.396Z,66.27
2023-04-09T02:31:45.508Z,65.68
2023-04-09T02:34:51.382Z,64.85
2023-04-09T02:37:57.860Z,65.76
2023-04-09T02:41:04.011Z,65.25
2023-04-09T02:44:10.530Z,64.84
2023-04-09T02:47:18.892Z,64.48
2023-04-09T02:50:27.368Z,64.58
2023-04-09T02:53:34.629Z,64.77
2023-04-09T02:56:41.071Z,65.04
2023-04-09T02:59:46.691Z,65.05
2023-04-09T03:02:55.993Z,65.82
2023-04-09T03:06:01.789Z,65.87
2023-04-09T03:09:08.150Z,66.29
2023-04-09T03:12:13.613Z,65.79
2023-04-09T03:15:20.413Z,66.44
2023-04-09T03:18:28.692Z,65.99
2023-04-09T03:21:35.194Z,65.50
2023-04-09T03:24:40.804Z,65.95
2023-04-09T03:27:47.149Z,65.97
2023-04-09T03:31:00.282Z,66.67
2023-04-09T03:34:09.864Z,66.38
2023-04-09T03:37:15.998Z,66.84
2023-04-09T03:40:24.042Z,66.70
2023-04-09T03:43:29.955Z,67.20
2023-04-09T03:46:36.915Z,66.51
2023-04-09T03:49:46.048Z,67.16
2023-04-09T03:53:00.484Z,66.20
2023-04-09T03:56:07.160Z,65.91
2023-04-09T03:59:14.867Z,66.64
2023-04-09T04:02:23.788Z,65.49
2023-04-09T04:05:41.302Z,65.98
2023-04-09T04:08:49.288Z,65.55
2023-04-09T04:11:57.264Z,65.84
2023-04-09T04:15:06.609Z,65.74
2023-04-09T04:18:26.715Z,65.58
2023-04-09T04:21:35.551Z,65.37
2023-04-09T04:24:42.611Z,65.52
2023-04-09T04:27:48.421Z,65.12
2023-04-09T04:30:58.281Z,64.80
2023-04-09T04:34:05.357Z,63.95
2023-04-09T04:37:17.255Z,64.02
2023-04-09T04:40:22.951Z,64.29
2023-04-09T04:43:36.662Z,64.08
2023-04-09T04:46:42.587Z,64.02
2023-04-09T04:49:50.486Z,63.91
2023-04-09T04:52:58.917Z,64.25
2023-04-09T04:56:10.328Z,64.17
2023-04-09T04:59:17.342Z,64.37
2023-04-09T05:02:35.029Z,64.10
2023-04-09T05:06:00.103Z,63.74
2023-04-09T05:09:16.911Z,64.10
2023-04-09T05:12:38.524Z,63.32
2023-04-09T05:15:46.109Z,63.12
2023-04-09T05:18:52.123Z,63.22
2023-04-09T05:21:58.738Z,63.44
2023-04-09T05:25:07.957Z,63.37
2023-04-09T05:28:17.982Z,63.86
2023-04-09T05:31:25.194Z,63.34
2023-04-09T05:34:36.583Z,63.63
2023-04-09T05:37:43.378Z,64.14
2023-04-09T05:40:54.426Z,63.65
2023-04-09T05:44:00.936Z,63.65
2023-04-09T05:47:08.873Z,63.48
2023-04-09T05:50:22.956Z,63.41
2023-04-09T05:53:32.371Z,63.36
2023-04-09T05:56:40.688Z,63.70
2023-04-09T05:59:47.138Z,63.78
2023-04-09T06:02:54.537Z,63.24
2023-04-09T06:06:00.998Z,62.61
2023-04-09T06:09:07.051Z,62.10
2023-04-09T06:12:19.886Z,62.19
2023-04-09T06:15:25.494Z,62.20
2023-04-09T06:18:34.043Z,62.74
2023-04-09T06:21:40.970Z,62.80
2023-04-09T06:24:47.294Z,62.77
2023-04-09T06:27:55.704Z,62.74
2023-04-09T06:31:02.744Z,62.89
2023-04-09T06:34:08.174Z,62.36
2023-04-09T06:37:14.699Z,61.74
2023-04-09T06:40:22.969Z,62.04
2023-04-09T06:43:32.627Z,62.47
2023-04-09T06:46:38.311Z,61.83
2023-04-09T06:49:44.939Z,62.31
2023-04-09T06:52:50.365Z,62.45
2023-04-09T06:55:57.326Z,62.43
2023-04-09T06:59:05.837Z,61.75
2023-04-09T07:02:12.829Z,62.57
2023-04-09T07:05:18.773Z,62.59
2023-04-09T07:08:25.140Z,62.23
2023-04-09T07:11:33.228Z,61.91
2023-04-09T07:14:42.337Z,61.84
2023-04-09T07:17:48.119Z,61.88
2023-04-09T07:20:56.442Z,62.68
2023-04-09T07:24:02.283Z,62.00
2023-04-09T07:27:08.655Z,61.45
2023-04-09T07:30:17.314Z,61.77
2023-04-09T07:33:23.808Z,62.16
2023-04-09T07:36:29.991Z,61.70
2023-04-09T07:39:37.252Z,60.31
2023-04-09T07:42:44.000Z,61.46
2023-04-09T07:45:54.916Z,61.09
2023-04-09T07:49:00.352Z,61.12
2023-04-09T07:52:08.388Z,60.55
2023-04-09T07:55:13.968Z,59.35
2023-04-09T07:58:20.623Z,60.12
2023-04-09T08:01:28.828Z,59.67
2023-04-09T08:04:35.251Z,60.30
2023-04-09T08:07:41.121Z,60.00
2023-04-09T08:10:48.192Z,60.15
2023-04-09T08:13:53.651Z,60.19
2023-04-09T08:17:03.673Z,60.54
2023-04-09T08:20:10.862Z,60.80
2023-04-09T08:23:17.457Z,60.86
2023-04-09T08:26:23.143Z,60.42
2023-04-09T08:29:32.279Z,61.40
2023-04-09T08:32:40.569Z,60.94
2023-04-09T08:35:47.002Z,61.04
2023-04-09T08:38:53.545Z,61.23
2023-04-09T08:42:03.143Z,60.91
2023-04-09T08:45:09.910Z,61.65
2023-04-09T08:48:22.003Z,61.35
2023-04-09T08:51:29.041Z,61.33
2023-04-09T08:54:36.280Z,61.13
2023-04-09T08:57:42.974Z,60.17
2023-04-09T09:00:55.273Z,59.77
2023-04-09T09:04:09.307Z,59.60
2023-04-09T09:07:16.264Z,60.66
2023-04-09T09:10:22.582Z,60.22
2023-04-09T09:13:31.685Z,60.45
2023-04-09T09:16:40.478Z,59.23
2023-04-09T09:19:49.801Z,60.06
2023-04-09T09:22:57.944Z,59.65
2023-04-09T09:26:16.682Z,59.62
2023-04-09T09:29:22.983Z,58.09
2023-04-09T09:32:29.484Z,58.82
2023-04-09T09:35:52.141Z,59.14
2023-04-09T09:39:03.785Z,59.92
2023-04-09T09:42:11.886Z,58.82
2023-04-09T09:45:22.371Z,59.15
2023-04-09T09:48:28.513Z,59.43
2023-04-09T09:51:43.053Z,57.90
2023-04-09T09:54:56.130Z,58.62
2023-04-09T09:58:12.743Z,58.54
2023-04-09T10:01:25.066Z,58.64
2023-04-09T10:04:37.012Z,58.07
2023-04-09T10:07:46.891Z,57.61
2023-04-09T10:10:55.622Z,58.46
2023-04-09T10:14:02.113Z,58.35
2023-04-09T10:17:09.022Z,57.53
2023-04-09T10:20:26.322Z,56.79
2023-04-09T10:23:46.262Z,56.68
2023-04-09T10:26:52.384Z,57.23
2023-04-09T10:30:00.627Z,56.60
2023-04-09T10:33:14.876Z,54.86
2023-04-09T10:36:25.224Z,54.91
2023-04-09T10:39:36.404Z,55.54
2023-04-09T10:42:46.025Z,55.34
2023-04-09T10:45:54.681Z,55.14
2023-04-09T10:49:21.157Z,54.76
2023-04-09T10:52:35.335Z,55.20
2023-04-09T10:55:51.303Z,53.73
2023-04-09T10:58:57.141Z,53.83
2023-04-09T11:02:03.735Z,55.25
2023-04-09T11:05:35.163Z,53.89
2023-04-09T11:08:42.993Z,54.12
2023-04-09T11:11:57.804Z,54.81
2023-04-09T11:15:04.340Z,53.11
2023-04-09T11:18:10.916Z,53.33
2023-04-09T11:21:17.461Z,53.73
2023-04-09T11:24:23.015Z,53.29
2023-04-09T11:27:32.453Z,53.30
2023-04-09T11:30:38.892Z,53.44
2023-04-09T11:33:48.915Z,53.49
2023-04-09T11:36:54.431Z,54.65
2023-04-09T11:40:02.097Z,54.05
2023-04-09T11:43:11.882Z,52.35
2023-04-09T11:46:18.789Z,52.74
2023-04-09T11:49:25.695Z,53.00
2023-04-09T11:52:35.974Z,52.08
2023-04-09T11:55:41.537Z,52.36
2023-04-09T11:58:52.903Z,52.23
2023-04-09T12:02:02.123Z,51.52
2023-04-09T12:05:11.035Z,50.15
2023-04-09T12:08:17.355Z,50.27
2023-04-09T12:11:24.285Z,50.64
2023-04-09T12:14:32.872Z,50.41
2023-04-09T12:17:39.304Z,49.46
2023-04-09T12:20:47.760Z,49.62
2023-04-09T12:23:54.178Z,49.75
2023-04-09T12:27:00.383Z,48.95
2023-04-09T12:30:11.789Z,48.56
2023-04-09T12:33:17.477Z,48.57
2023-04-09T12:36:24.210Z,48.79
2023-04-09T12:39:29.741Z,47.63
2023-04-09T12:42:36.190Z,47.08
2023-04-09T12:45:44.477Z,47.19
2023-04-09T12:48:51.064Z,45.88
2023-04-09T12:51:56.823Z,45.33
2023-04-09T12:55:03.229Z,45.00
2023-04-09T12:58:08.746Z,44.76
2023-04-09T13:01:18.344Z,44.05
2023-04-09T13:04:24.162Z,43.08
2023-04-09T13:07:31.542Z,42.91
2023-04-09T13:10:37.627Z,42.84
2023-04-09T13:13:44.469Z,42.71
2023-04-09T13:16:53.100Z,43.28
2023-04-09T13:19:59.425Z,43.74
2023-04-09T13:23:05.771Z,43.81
2023-04-09T13:26:12.137Z,44.35
2023-04-09T13:29:18.155Z,43.36
2023-04-09T13:32:27.724Z,44.33
2023-04-09T13:35:34.086Z,43.94
2023-04-09T13:38:40.575Z,43.87
2023-04-09T13:41:46.925Z,43.84
2023-04-09T13:44:53.325Z,46.03
2023-04-09T13:48:01.643Z,46.86
2023-04-09T13:51:08.927Z,49.42
2023-04-09T13:54:14.470Z,45.00
2023-04-09T13:57:21.122Z,46.90
2023-04-09T14:00:26.573Z,47.59
2023-04-09T14:03:36.285Z,47.56
2023-04-09T14:06:42.490Z,46.64
2023-04-09T14:09:49.031Z,49.46
2023-04-09T14:12:54.773Z,48.94
2023-04-09T14:16:01.128Z,48.00
2023-04-09T14:19:10.497Z,49.60
2023-04-09T14:22:17.112Z,50.54
2023-04-09T14:25:22.753Z,50.32
2023-04-09T14:28:29.040Z,51.46
2023-04-09T14:31:34.782Z,52.43
2023-04-09T14:34:43.897Z,52.43
2023-04-09T14:37:49.505Z,53.36
2023-04-09T14:40:56.051Z,53.38
2023-04-09T14:44:01.492Z,53.24
2023-04-09T14:47:07.848Z,52.55
2023-04-09T14:50:16.400Z,52.11
2023-04-09T14:53:22.909Z,53.43
2023-04-09T14:56:28.644Z,53.46
2023-04-09T14:59:35.214Z,53.42
2023-04-09T15:02:41.854Z,53.79
2023-04-09T15:05:51.881Z,54.18
2023-04-09T15:08:57.615Z,54.27
2023-04-09T15:12:04.072Z,54.40
2023-04-09T15:15:11.485Z,55.64
2023-04-09T15:18:19.118Z,55.82
2023-04-09T15:21:29.298Z,55.41
2023-04-09T15:24:35.689Z,55.08
2023-04-09T15:27:41.169Z,55.63
2023-04-09T15:30:47.842Z,54.72
2023-04-09T15:33:53.573Z,55.11
2023-04-09T15:37:02.670Z,53.64
2023-04-09T15:40:09.141Z,54.17
2023-04-09T15:43:15.707Z,55.18
2023-04-09T15:46:21.607Z,54.27
2023-04-09T15:49:28.280Z,54.48
2023-04-09T15:52:36.693Z,54.44
2023-04-09T15:55:43.054Z,53.50
2023-04-09T15:58:49.040Z,54.51
2023-04-09T16:01:56.160Z,53.32
2023-04-09T16:05:01.813Z,54.06
2023-04-09T16:08:11.951Z,54.55
2023-04-09T16:11:18.134Z,55.53
2023-04-09T16:14:24.602Z,53.95
2023-04-09T16:17:30.752Z,54.22
2023-04-09T16:20:37.198Z,55.51
2023-04-09T16:23:45.945Z,55.38
2023-04-09T16:26:52.222Z,55.37
2023-04-09T16:29:57.733Z,53.60
2023-04-09T16:33:04.230Z,54.69
2023-04-09T16:36:10.691Z,55.15
2023-04-09T16:39:21.882Z,55.52
2023-04-09T16:42:28.376Z,54.67
2023-04-09T16:45:35.599Z,55.27
2023-04-09T16:48:42.334Z,56.57
2023-04-09T16:51:48.807Z,55.94
2023-04-09T16:54:57.148Z,57.21
2023-04-09T16:58:03.759Z,57.02
2023-04-09T17:01:09.501Z,57.60
2023-04-09T17:04:16.630Z,58.29
2023-04-09T17:07:22.819Z,58.08
2023-04-09T17:10:32.458Z,59.00
2023-04-09T17:13:39.086Z,59.29
2023-04-09T17:16:45.632Z,59.03
2023-04-09T17:19:51.263Z,59.37
2023-04-09T17:22:57.655Z,59.57
2023-04-09T17:26:06.048Z,59.98
2023-04-09T17:29:12.452Z,60.86
2023-04-09T17:32:18.891Z,61.33
2023-04-09T17:35:25.674Z,60.93
2023-04-09T17:38:32.064Z,61.58
2023-04-09T17:41:41.179Z,61.94
2023-04-09T17:44:47.988Z,61.93
2023-04-09T17:47:54.472Z,61.47
2023-04-09T17:50:59.996Z,61.58
2023-04-09T17:54:06.561Z,61.54
2023-04-09T17:57:15.829Z,61.59
2023-04-09T18:00:22.345Z,61.12
2023-04-09T18:03:28.860Z,60.93
2023-04-09T18:06:35.426Z,60.45
2023-04-09T18:09:41.183Z,60.71
2023-04-09T18:12:51.004Z,60.29
2023-04-09T18:15:56.955Z,60.69
2023-04-09T18:19:03.532Z,61.01
2023-04-09T18:22:09.249Z,60.76
2023-04-09T18:25:16.225Z,61.14
2023-04-09T18:28:24.512Z,61.55
2023-04-09T18:31:30.984Z,62.07
2023-04-09T18:34:36.731Z,62.68
2023-04-09T18:37:43.192Z,62.91
2023-04-09T18:40:48.855Z,63.29
2023-04-09T18:43:57.987Z,64.03
2023-04-09T18:47:05.090Z,63.90
2023-04-09T18:50:12.921Z,63.98
2023-04-09T18:53:18.782Z,64.02
2023-04-09T18:56:25.418Z,64.20
2023-04-09T18:59:35.255Z,64.38
2023-04-09T19:02:41.926Z,64.33
2023-04-09T19:05:47.726Z,64.44
2023-04-09T19:08:58.306Z,64.02
2023-04-09T19:12:04.646Z,63.61
2023-04-09T19:15:14.908Z,63.86
2023-04-09T19:18:20.444Z,63.57
2023-04-09T19:21:28.198Z,63.71
2023-04-09T19:24:33.822Z,64.04
2023-04-09T19:27:40.551Z,63.80
2023-04-09T19:30:50.794Z,64.16
2023-04-09T19:33:57.136Z,63.72
2023-04-09T19:37:02.836Z,63.92
2023-04-09T19:40:11.498Z,63.62
2023-04-09T19:43:17.833Z,63.59
2023-04-09T19:46:27.036Z,63.71
2023-04-09T19:49:32.690Z,63.72
2023-04-09T19:52:39.256Z,63.63
2023-04-09T19:55:45.002Z,63.66
2023-04-09T19:58:51.965Z,64.03
2023-04-09T20:02:01.036Z,63.81
2023-04-09T20:05:08.095Z,63.94
2023-04-09T20:08:15.930Z,63.74
2023-04-09T20:11:22.822Z,64.01
2023-04-09T20:14:28.346Z,64.21
2023-04-09T20:17:38.822Z,64.79
2023-04-09T20:20:44.620Z,64.39
2023-04-09T20:23:51.133Z,64.39
2023-04-09T20:26:57.076Z,63.78
2023-04-09T20:30:03.577Z,64.27
2023-04-09T20:33:11.929Z,64.34
2023-04-09T20:36:19.085Z,64.23
2023-04-09T20:39:26.852Z,65.08
2023-04-09T20:42:33.191Z,64.76
2023-04-09T20:45:38.764Z,64.64
2023-04-09T20:48:47.913Z,64.71
2023-04-09T20:51:53.457Z,65.38
2023-04-09T20:55:01.141Z,64.81
2023-04-09T20:58:06.698Z,64.69
2023-04-09T21:01:13.506Z,65.11
2023-04-09T21:04:21.972Z,64.92
2023-04-09T21:07:28.562Z,65.03
2023-04-09T21:10:34.071Z,65.64
2023-04-09T21:13:53.744Z,65.74
2023-04-09T21:17:00.562Z,66.36
2023-04-09T21:20:11.563Z,66.56
2023-04-09T21:23:17.474Z,66.36
2023-04-09T21:26:25.284Z,66.01
2023-04-09T21:29:31.406Z,66.24
2023-04-09T21:32:37.719Z,66.23
2023-04-09T21:35:46.257Z,65.97
2023-04-09T21:38:52.734Z,66.22
2023-04-09T21:41:58.644Z,66.25
2023-04-09T21:45:04.989Z,66.28
2023-04-09T21:48:10.738Z,66.55
2023-04-09T21:51:19.939Z,66.95
2023-04-09T21:54:25.660Z,67.00
2023-04-09T21:57:32.095Z,66.80
2023-04-09T22:00:38.240Z,66.61
2023-04-09T22:03:44.961Z,66.92
2023-04-09T22:06:53.904Z,67.25
2023-04-09T22:10:01.136Z,66.51
2023-04-09T22:13:06.685Z,67.07
2023-04-09T22:16:13.338Z,67.30
2023-04-09T22:19:18.838Z,67.32
2023-04-09T22:22:28.182Z,67.39
2023-04-09T22:25:35.365Z,67.73
2023-04-09T22:28:41.889Z,67.82
2023-04-09T22:31:48.108Z,67.69
2023-04-09T22:34:54.659Z,67.64
2023-04-09T22:38:03.544Z,67.99
2023-04-09T22:41:10.182Z,67.63
2023-04-09T22:44:15.649Z,67.86
2023-04-09T22:47:22.002Z,67.63
2023-04-09T22:50:31.004Z,67.86
2023-04-09T22:53:40.170Z,67.74
2023-04-09T22:56:46.557Z,67.96
2023-04-09T22:59:52.838Z,68.07
2023-04-09T23:02:58.680Z,68.15
2023-04-09T23:06:05.305Z,67.95
2023-04-09T23:09:14.116Z,68.06
2023-04-09T23:12:20.679Z,68.25
2023-04-09T23:15:26.737Z,68.00
2023-04-09T23:18:33.094Z,68.64
2023-04-09T23:21:38.528Z,68.98
2023-04-09T23:24:48.750Z,68.91
2023-04-09T23:27:54.223Z,69.07
2023-04-09T23:31:01.405Z,68.75
2023-04-09T23:34:06.865Z,68.91
2023-04-09T23:37:13.414Z,68.39
2023-04-09T23:40:22.032Z,68.53
2023-04-09T23:43:28.552Z,68.32
2023-04-09T23:46:34.098Z,68.15
2023-04-09T23:49:40.929Z,68.16
2023-04-09T23:52:51.835Z,68.60
2023-04-09T23:56:01.096Z,68.03
2023-04-09T23:59:06.937Z,68.44
